Latest Coastal Weather Observations for Laverton

IDV60701

Issued at 5:21 pm EST Friday 6 May 2016 (issued every 10 minutes, with the page automatically refreshed every 10 minutes)

About coastal observations | Map of coastal stations | Coastal observations for VIC | Marine services | Other Formats
Station Details ID: 087031 Name: LAVERTON RAAF Lat: -37.86 Lon: 144.76 Height: 20.1 m
Data from the previous 72 hours. | See also: Recent months at Laverton
Date/Time
EST
Temp

°C
Wind Pressure Rain
since 9am
mm
Weather Cloud Vis
km
Sea
Height
m
Swell
Dir
 
Speed
knots
Gust
knots
hPa Trend Height
m
Period
s
Dir
06/05:00pm 18.1 SSE 8 11 1014.4 - 0.0 - - 10 - - - -
06/04:30pm 19.2 SSE 7 10 1014.1 - 0.0 - - 10 - - - -
06/04:00pm 20.0 SSE 9 11 1013.9 - 0.0 - - 10 - - - -
06/03:30pm 20.5 SSE 10 15 1013.7 - 0.0 - Partly cloudy 10 - - - -
06/03:00pm 21.9 SE 5 10 1013.4 - 0.0 - - 10 - - - -
06/02:30pm 25.7 NNW 13 19 1013.0 - 0.0 - - 10 - - - -
06/02:00pm 25.6 NNW 16 21 1013.0 - 0.0 - - 10 - - - -
06/01:30pm 25.7 NNW 15 22 1013.1 - 0.0 - - 10 - - - -
06/01:00pm 25.6 NW 15 19 1013.4 - 0.0 - - 10 - - - -
06/12:30pm 25.4 NW 17 23 1013.8 - 0.0 - - 10 - - - -
06/12:00pm 24.5 N 11 21 1014.2 - 0.0 - - 10 - - - -
06/11:30am 22.8 NNE 9 14 1014.5 - 0.0 - - 10 - - - -
06/11:00am 21.3 N 10 15 1014.9 - 0.0 - - 10 - - - -
06/10:30am 20.2 N 12 18 1014.7 - 0.0 - - 10 - - - -
06/10:00am 19.2 N 13 22 1014.3 - 0.0 - - 10 - - - -
06/09:43am 18.5 N 16 26 1014.2 - 0.0 - - 10 - - - -
06/09:30am 18.0 N 17 26 1014.3 - 0.0 - - 10 - - - -
06/09:00am 16.9 N 15 21 1014.6 - 0.0 - - 10 - - - -
06/08:30am 15.9 N 10 17 1014.9 - 0.0 - - 10 - - - -
06/08:00am 15.1 N 13 19 1014.6 - 0.0 - - 10 - - - -
06/07:30am 14.7 N 13 22 1014.1 - 0.0 - - 10 - - - -
06/07:00am 14.6 N 14 23 1013.8 - 0.0 - - 10 - - - -
06/06:39am 14.6 N 15 25 1013.6 - 0.0 - - 10 - - - -
06/06:30am 14.7 N 15 21 1013.6 - 0.0 - - 10 - - - -
06/06:00am 14.7 N 15 23 1013.5 - 0.0 - - 10 - - - -
06/05:30am 14.8 N 14 20 1013.3 - 0.0 - - 10 - - - -
06/05:00am 15.0 N 13 21 1013.2 - 0.0 - - 10 - - - -
06/04:30am 15.3 NNE 13 19 1013.1 - 0.0 - - 10 - - - -
06/04:00am 15.4 N 11 16 1013.2 - 0.0 - - 10 - - - -
06/03:30am 15.5 NNE 11 19 1013.2 - 0.0 - - 10 - - - -
06/03:00am 15.6 NNE 13 18 1013.1 - 0.0 - - 10 - - - -
06/02:30am 15.9 NNE 14 18 1013.4 - 0.0 - - 10 - - - -
06/02:00am 16.4 NNE 13 19 1013.5 - 0.0 - - 10 - - - -
06/01:30am 16.8 NNE 13 18 1013.4 - 0.0 - - 10 - - - -
06/01:00am 17.2 N 13 21 1013.3 - 0.0 - - 10 - - - -
06/12:30am 17.7 N 13 20 1013.2 - 0.0 - - 10 - - - -
06/12:00am 17.7 N 13 20 1013.1 - 0.0 - - 10 - - - -
 
Date/Time
EST
Temp

°C
Wind Pressure Rain
since 9am
mm
Weather Cloud Vis
km
Sea
Height
m
Swell
Dir
 
Speed
knots
Gust
knots
hPa Trend Height
m
Period
s
Dir
05/11:30pm 17.1 N 12 18 1013.1 - 0.0 - - 10 - - - -
05/11:00pm 16.3 NNE 11 15 1013.3 - 0.0 - - 10 - - - -
05/10:30pm 16.6 N 10 13 1013.5 - 0.0 - - 10 - - - -
05/10:00pm 16.8 NNE 11 14 1013.5 - 0.0 - - 10 - - - -
05/09:30pm 17.1 NNE 11 14 1013.5 - 0.0 - - 10 - - - -
05/09:00pm 17.2 NNE 11 16 1013.3 - 0.0 - - 10 - - - -
05/08:30pm 17.1 NNE 10 14 1013.4 - 0.0 - - 10 - - - -
05/08:00pm 17.6 NNE 10 14 1013.4 - 0.0 - - 10 - - - -
05/07:30pm 18.1 NNE 11 16 1013.3 - 0.0 - - 10 - - - -
05/07:00pm 18.3 NNE 12 18 1013.2 - 0.0 - - 10 - - - -
05/06:30pm 18.2 NNE 9 12 1013.0 - 0.0 - - 10 - - - -
05/06:00pm 18.9 N 9 11 1012.8 - 0.0 - Mostly clear 10 - - - -
05/05:30pm 19.5 N 9 12 1012.6 - 0.0 - - 10 - - - -
05/05:00pm 20.2 N 11 18 1012.4 - 0.0 - - 10 - - - -
05/04:30pm 20.8 N 15 23 1012.5 - 0.0 - Partly cloudy 10 - - - -
05/04:00pm 21.0 NNW 14 20 1012.7 - 0.0 - Partly cloudy 10 - - - -
05/03:30pm 21.5 NNW 16 21 1012.6 - 0.0 - Partly cloudy 10 - - - -
05/03:00pm 21.4 NNW 17 24 1012.6 - 0.0 - Partly cloudy 10 - - - -
05/02:36pm 20.9 NNW 18 28 1012.6 - 0.0 - Partly cloudy 10 - - - -
05/02:30pm 20.7 NNW 17 24 1012.7 - 0.0 - Partly cloudy 10 - - - -
05/02:00pm 21.0 NNW 17 26 1012.8 - 0.0 - Partly cloudy 10 - - - -
05/01:30pm 21.0 NNW 18 28 1013.0 - 0.0 - Partly cloudy 10 - - - -
05/01:22pm 21.1 NNW 19 29 1013.1 - 0.0 - Partly cloudy 10 - - - -
05/01:15pm 21.1 NNW 18 26 1013.1 - 0.0 - Partly cloudy 10 - - - -
05/01:00pm 19.3 N 14 20 1013.4 - 0.0 - Partly cloudy 10 - - - -
05/12:30pm 18.9 N 16 23 1013.8 - 0.0 - Partly cloudy 10 - - - -
05/12:09pm 19.3 N 17 27 1014.1 - 0.0 - Partly cloudy 10 - - - -
05/12:00pm 19.4 N 15 21 1014.4 - 0.0 - - 10 - - - -
05/11:30am 19.3 N 16 23 1014.9 - 0.0 - - 10 - - - -
05/11:13am 19.5 N 15 25 1015.2 - 0.0 - - 10 - - - -
05/11:00am 19.4 NNW 17 25 1015.4 - 0.0 - Partly cloudy 10 - - - -
05/10:42am 19.2 N 15 25 1015.6 - 0.0 - Partly cloudy 10 - - - -
05/10:30am 19.1 N 15 22 1015.7 - 0.0 - Cloudy 10 - - - -
05/10:11am 19.2 NNW 16 26 1015.9 - 0.0 - Cloudy 10 - - - -
05/10:00am 19.0 N 15 21 1016.1 - 0.0 - Cloudy 10 - - - -
05/09:30am 17.1 NNE 9 12 1016.3 - 0.0 - Partly cloudy 10 - - - -
05/09:00am 16.1 NNE 10 15 1016.4 - 0.0 - - 10 - - - -
05/08:30am 15.4 NNE 8 13 1016.3 - 0.0 - Partly cloudy 10 - - - -
05/08:00am 13.6 ENE 8 10 1016.2 - 0.0 - Partly cloudy 10 - - - -
05/07:30am 12.8 NNE 8 12 1016.1 - 0.0 - - 10 - - - -
05/07:00am 12.0 NNE 8 10 1016.0 - 0.0 - - 10 - - - -
05/06:30am 11.4 NE 7 9 1015.9 - 0.0 - - 10 - - - -
05/06:00am 11.8 NE 7 10 1015.9 - 0.0 - - 10 - - - -
05/05:30am 11.8 NE 8 9 1015.8 - 0.0 - - 10 - - - -
05/05:00am 12.0 NNE 9 11 1015.5 - 0.0 - - 10 - - - -
05/04:30am 11.7 NE 9 12 1015.4 - 0.0 - - 10 - - - -
05/04:00am 12.1 NNE 10 13 1015.4 - 0.0 - - 10 - - - -
05/03:30am 12.1 NNE 8 11 1015.6 - 0.0 - - 10 - - - -
05/03:00am 11.9 NNE 8 10 1015.8 - 0.0 - - 10 - - - -
05/02:30am 12.2 NNE 9 12 1016.1 - 0.0 - - 10 - - - -
05/02:00am 12.2 NNE 9 12 1016.2 - 0.0 - - 10 - - - -
05/01:30am 12.2 NE 9 11 1016.2 - 0.0 - - 10 - - - -
05/01:00am 12.2 NE 8 10 1016.3 - 0.0 - - 10 - - - -
05/12:30am 12.5 NNE 8 12 1016.4 - 0.0 - - 10 - - - -
05/12:00am 12.6 NNE 8 10 1016.6 - 0.0 - - 10 - - - -
 
Date/Time
EST
Temp

°C
Wind Pressure Rain
since 9am
mm
Weather Cloud Vis
km
Sea
Height
m
Swell
Dir
 
Speed
knots
Gust
knots
hPa Trend Height
m
Period
s
Dir
04/11:30pm 13.0 NNE 8 11 1016.6 - 0.0 - Partly cloudy 10 - - - -
04/11:00pm 13.4 NNE 8 11 1016.6 - 0.0 - Partly cloudy 10 - - - -
04/10:30pm 13.4 NNE 8 11 1016.7 - 0.0 - Partly cloudy 10 - - - -
04/10:00pm 13.6 NNE 7 10 1016.8 - 0.0 - Partly cloudy 10 - - - -
04/09:30pm 13.9 NNE 7 10 1016.7 - 0.0 - Cloudy 10 - - - -
04/09:00pm 13.7 N 7 10 1016.8 - 0.0 - Mostly clear 10 - - - -
04/08:30pm 14.3 N 8 14 1016.7 - 0.0 - Partly cloudy 10 - - - -
04/08:00pm 14.4 N 8 13 1016.4 - 0.0 - Partly cloudy 10 - - - -
04/07:30pm 14.9 N 8 12 1016.2 - 0.0 - Cloudy 10 - - - -
04/07:00pm 15.1 N 9 13 1015.9 - 0.0 - Cloudy 10 - - - -
04/06:30pm 15.2 N 7 11 1015.5 - 0.0 - Cloudy 10 - - - -
04/06:00pm 15.5 N 11 16 1015.2 - 0.0 - Cloudy 10 - - - -
04/05:30pm 15.7 N 9 13 1015.0 - 0.0 - Cloudy 10 - - - -
04/05:00pm 15.8 NNW 11 15 1014.7 - 0.0 - Cloudy 10 - - - -
04/04:30pm 15.9 NNW 11 17 1014.5 - 0.0 - Cloudy 10 - - - -
04/04:00pm 15.9 NNW 12 19 1014.5 - 0.0 - Cloudy 10 - - - -
04/03:30pm 16.2 NNW 13 18 1014.4 - 0.0 - Partly cloudy 10 - - - -
04/03:00pm 16.5 NW 15 19 1014.4 - 0.0 - Mostly cloudy 10 - - - -
04/02:30pm 16.6 NW 15 20 1014.2 - 0.0 - Cloudy 10 - - - -
04/02:00pm 17.0 WNW 16 23 1014.3 - 0.0 - Partly cloudy 10 - - - -
04/01:30pm 16.8 NW 15 24 1014.2 - 0.0 - Partly cloudy 10 - - - -
04/01:00pm 17.1 NW 15 22 1014.4 - 0.0 - - 10 - - - -
04/12:30pm 16.6 NW 17 22 1014.7 - 0.0 - - 10 - - - -
04/12:00pm 16.4 NW 14 20 1015.2 - 0.0 - - 10 - - - -
04/11:30am 15.9 NW 13 21 1015.3 - 0.0 - - 10 - - - -
04/11:00am 15.6 NW 13 17 1015.5 - 0.0 - - 10 - - - -
04/10:30am 14.9 NW 13 17 1015.5 - 0.0 - - 10 - - - -
04/10:00am 14.2 NW 12 17 1015.5 - 0.0 - - 10 - - - -
04/09:30am 13.1 NW 14 18 1015.6 - 0.0 - - 10 - - - -
04/09:00am 12.0 NW 11 15 1015.4 - 2.2 - - 10 - - - -
04/08:30am 10.7 NW 8 12 1015.2 - 2.2 - - 10 - - - -
04/08:00am 9.2 N 6 9 1014.8 - 2.2 - - 10 - - - -
04/07:30am 7.4 N 6 7 1014.4 - 2.2 - - 10 - - - -
04/07:00am 8.2 N 6 10 1013.9 - 2.2 - - 10 - - - -
04/06:30am 7.4 NW 6 8 1013.6 - 2.2 - - 10 - - - -
04/06:00am 7.8 NW 7 9 1013.2 - 2.2 - - 10 - - - -
04/05:30am 8.2 NW 11 13 1012.4 - 2.2 - - 10 - - - -
04/05:00am 8.4 NW 10 12 1012.1 - 2.2 - - 10 - - - -
04/04:30am 8.7 NW 9 11 1011.7 - 2.2 - - 10 - - - -
04/04:00am 8.8 NW 9 11 1011.5 - 2.2 - - 10 - - - -
04/03:30am 8.8 NW 8 10 1011.2 - 2.2 - - 10 - - - -
04/03:00am 9.6 NNW 9 11 1010.6 - 2.2 - - 10 - - - -
04/02:30am 9.3 NNW 8 11 1010.4 - 2.2 - - 10 - - - -
04/02:00am 9.2 NNW 7 8 1010.3 - 2.2 - - 10 - - - -
04/01:30am 9.9 NNW 7 9 1010.2 - 2.2 - - 10 - - - -
04/01:00am 10.0 NNW 5 7 1010.2 - 2.2 - - 10 - - - -
04/12:30am 10.6 NW 7 10 1009.8 - 2.2 - Partly cloudy 10 - - - -
04/12:00am 11.7 WNW 10 17 1009.7 - 2.2 - Partly cloudy 10 - - - -
 
Date/Time
EST
Temp

°C
Wind Pressure Rain
since 9am
mm
Weather Cloud Vis
km
Sea
Height
m
Swell
Dir
 
Speed
knots
Gust
knots
hPa Trend Height
m
Period
s
Dir
03/11:30pm 11.9 NW 11 15 1009.2 - 2.2 - Partly cloudy 10 - - - -
03/11:00pm 10.7 NW 7 9 1008.8 - 2.2 - - 10 - - - -
03/10:30pm 10.9 NW 8 10 1008.4 - 2.2 - Partly cloudy 10 - - - -
03/10:00pm 11.4 NW 7 10 1008.4 - 2.2 - - 10 - - - -
03/09:30pm 12.3 NW 9 13 1008.0 - 2.2 - Partly cloudy 10 - - - -
03/09:00pm 12.5 NW 7 9 1007.3 - 2.2 - Cloudy 10 - - - -
03/08:30pm 12.9 NW 7 9 1007.0 - 2.2 - Cloudy 10 - - - -
03/08:00pm 13.4 WNW 9 12 1006.7 - 2.2 - Cloudy 10 - - - -
03/07:30pm 13.8 WNW 10 13 1006.2 - 2.2 - Partly cloudy 10 - - - -
03/07:00pm 13.9 W 8 15 1006.0 - 2.2 - Partly cloudy 10 - - - -
03/06:30pm 13.9 W 13 18 1005.3 - 2.2 - Partly cloudy 10 - - - -
03/06:00pm 14.0 W 8 14 1004.4 - 2.2 - Mostly cloudy 10 - - - -
03/05:30pm 14.0 WNW 12 18 1003.5 - 2.2 - Partly cloudy 10 - - - -

Other Formats:

Comma delimited format used in spreadsheet applications
http://www.bom.gov.au/fwo/IDV60701/IDV60701.94865.axf

JavaScript Object Notation format (JSON) in row-major order
http://www.bom.gov.au/fwo/IDV60701/IDV60701.94865.json